createdAt,value
2017-09-14T00:00:43.753Z,994.69
2017-09-14T00:01:43.722Z,994.64
2017-09-14T00:02:43.693Z,994.65
2017-09-14T00:03:43.629Z,994.62
2017-09-14T00:04:43.610Z,994.60
2017-09-14T00:05:43.608Z,994.57
2017-09-14T00:06:43.609Z,994.61
2017-09-14T00:07:43.490Z,994.59
2017-09-14T00:08:43.459Z,994.53
2017-09-14T00:09:43.424Z,994.61
2017-09-14T00:10:43.430Z,994.62
2017-09-14T00:11:43.359Z,994.63
2017-09-14T00:12:43.337Z,994.61
2017-09-14T00:13:43.302Z,994.61
2017-09-14T00:14:43.292Z,994.58
2017-09-14T00:15:43.229Z,994.61
2017-09-14T00:16:43.231Z,994.59
2017-09-14T00:17:43.167Z,994.60
2017-09-14T00:18:43.114Z,994.56
2017-09-14T00:19:43.092Z,994.57
2017-09-14T00:20:43.057Z,994.53
2017-09-14T00:21:43.013Z,994.58
2017-09-14T00:22:42.968Z,994.59
2017-09-14T00:23:42.940Z,994.56
2017-09-14T00:24:42.939Z,994.52
2017-09-14T00:25:42.887Z,994.53
2017-09-14T00:26:42.834Z,994.53
2017-09-14T00:27:42.796Z,994.53
2017-09-14T00:28:42.773Z,994.56
2017-09-14T00:29:42.734Z,994.53
2017-09-14T00:30:42.695Z,994.51
2017-09-14T00:31:42.676Z,994.57
2017-09-14T00:32:42.624Z,994.58
2017-09-14T00:33:42.601Z,994.52
2017-09-14T00:34:42.563Z,994.56
2017-09-14T00:35:42.523Z,994.53
2017-09-14T00:36:42.483Z,994.44
2017-09-14T00:37:42.447Z,994.46
2017-09-14T00:38:42.431Z,994.51
2017-09-14T00:39:42.383Z,994.48
2017-09-14T00:40:42.351Z,994.49
2017-09-14T00:41:42.314Z,994.42
2017-09-14T00:42:42.274Z,994.47
2017-09-14T00:43:42.344Z,994.44
2017-09-14T00:44:42.215Z,994.48
2017-09-14T00:45:42.167Z,994.50
2017-09-14T00:46:42.131Z,994.44
2017-09-14T00:47:42.096Z,994.39
2017-09-14T00:48:42.057Z,994.35
2017-09-14T00:49:42.027Z,994.34
2017-09-14T00:50:41.990Z,994.41
2017-09-14T00:51:41.954Z,994.33
2017-09-14T00:52:41.915Z,994.38
2017-09-14T00:53:41.883Z,994.31
2017-09-14T00:54:41.848Z,994.34
2017-09-14T00:55:41.819Z,994.25
2017-09-14T00:56:41.787Z,994.26
2017-09-14T00:57:41.741Z,994.23
2017-09-14T00:58:41.706Z,994.22
2017-09-14T00:59:41.675Z,994.18
2017-09-14T01:00:41.639Z,994.16
2017-09-14T01:01:41.601Z,994.16
2017-09-14T01:02:41.566Z,994.23
2017-09-14T01:03:41.540Z,994.18
2017-09-14T01:04:41.501Z,994.20
2017-09-14T01:05:41.466Z,994.20
2017-09-14T01:06:41.434Z,994.15
2017-09-14T01:07:41.401Z,994.22
2017-09-14T01:08:41.364Z,994.24
2017-09-14T01:09:41.334Z,994.22
2017-09-14T01:10:41.294Z,994.22
2017-09-14T01:11:41.251Z,994.24
2017-09-14T01:12:41.219Z,994.25
2017-09-14T01:13:41.181Z,994.25
2017-09-14T01:14:41.147Z,994.28
2017-09-14T01:15:41.109Z,994.26
2017-09-14T01:16:41.115Z,994.36
2017-09-14T01:17:41.045Z,994.27
2017-09-14T01:18:41.005Z,994.23
2017-09-14T01:19:40.969Z,994.33
2017-09-14T01:20:40.967Z,994.30
2017-09-14T01:21:40.900Z,994.25
2017-09-14T01:22:40.867Z,994.25
2017-09-14T01:23:40.828Z,994.28
2017-09-14T01:24:40.792Z,994.34
2017-09-14T01:25:40.756Z,994.34
2017-09-14T01:26:40.724Z,994.31
2017-09-14T01:27:40.689Z,994.36
2017-09-14T01:28:40.654Z,994.32
2017-09-14T01:29:40.618Z,994.36
2017-09-14T01:30:40.585Z,994.36
2017-09-14T01:31:40.547Z,994.41
2017-09-14T01:32:40.516Z,994.35
2017-09-14T01:33:40.478Z,994.36
2017-09-14T01:34:40.442Z,994.35
2017-09-14T01:35:40.415Z,994.35
2017-09-14T01:36:40.375Z,994.30
2017-09-14T01:37:40.338Z,994.33
2017-09-14T01:38:40.309Z,994.25
2017-09-14T01:39:40.266Z,994.25
2017-09-14T01:40:40.245Z,994.23
2017-09-14T01:41:40.211Z,994.22
2017-09-14T01:42:40.165Z,994.22
2017-09-14T01:43:40.127Z,994.20
2017-09-14T01:44:40.096Z,994.21
2017-09-14T01:45:40.066Z,994.22
2017-09-14T01:46:40.029Z,994.19
2017-09-14T01:47:39.986Z,994.16
2017-09-14T01:48:39.956Z,994.16
2017-09-14T01:49:39.924Z,994.17
2017-09-14T01:50:39.883Z,994.18
2017-09-14T01:51:39.859Z,994.20
2017-09-14T01:52:39.814Z,994.18
2017-09-14T01:53:39.783Z,994.20
2017-09-14T01:54:39.745Z,994.20
2017-09-14T01:55:39.712Z,994.19
2017-09-14T01:56:39.675Z,994.23
2017-09-14T01:57:39.638Z,994.26
2017-09-14T01:58:39.693Z,994.26
2017-09-14T01:59:39.571Z,994.26
2017-09-14T02:00:39.555Z,994.23
2017-09-14T02:01:39.514Z,994.19
2017-09-14T02:02:39.471Z,994.26
2017-09-14T02:03:39.437Z,994.27
2017-09-14T02:04:39.400Z,994.31
2017-09-14T02:05:39.393Z,994.29
2017-09-14T02:06:39.328Z,994.22
2017-09-14T02:07:39.294Z,994.23
2017-09-14T02:08:39.263Z,994.25
2017-09-14T02:09:39.228Z,994.28
2017-09-14T02:10:39.199Z,994.23
2017-09-14T02:11:39.179Z,994.23
2017-09-14T02:12:39.155Z,994.16
2017-09-14T02:13:39.094Z,994.16
2017-09-14T02:14:39.058Z,994.15
2017-09-14T02:15:39.014Z,994.13
2017-09-14T02:16:38.982Z,994.19
2017-09-14T02:17:38.962Z,994.20
2017-09-14T02:18:38.918Z,994.21
2017-09-14T02:19:38.879Z,994.16
2017-09-14T02:20:38.843Z,994.23
2017-09-14T02:21:38.807Z,994.23
2017-09-14T02:22:38.783Z,994.22
2017-09-14T02:23:38.748Z,994.28
2017-09-14T02:24:38.728Z,994.26
2017-09-14T02:25:38.671Z,994.26
2017-09-14T02:26:38.638Z,994.23
2017-09-14T02:27:38.601Z,994.25
2017-09-14T02:28:38.582Z,994.27
2017-09-14T02:29:38.554Z,994.24
2017-09-14T02:30:38.510Z,994.27
2017-09-14T02:31:38.502Z,994.20
2017-09-14T02:32:38.424Z,994.20
2017-09-14T02:33:38.399Z,994.16
2017-09-14T02:34:38.411Z,994.18
2017-09-14T02:35:38.321Z,994.22
2017-09-14T02:36:38.290Z,994.22
2017-09-14T02:37:38.248Z,994.23
2017-09-14T02:38:38.226Z,994.23
2017-09-14T02:39:38.181Z,994.23
2017-09-14T02:40:38.145Z,994.17
2017-09-14T02:41:38.114Z,994.11
2017-09-14T02:42:38.077Z,994.11
2017-09-14T02:43:38.043Z,994.03
2017-09-14T02:44:38.011Z,994.04
2017-09-14T02:45:37.975Z,994.01
2017-09-14T02:46:37.938Z,993.89
2017-09-14T02:47:37.916Z,993.87
2017-09-14T02:48:37.887Z,993.85
2017-09-14T02:49:37.832Z,993.83
2017-09-14T02:50:37.796Z,993.78
2017-09-14T02:51:37.774Z,993.73
2017-09-14T02:52:37.730Z,993.66
2017-09-14T02:53:37.690Z,993.63
2017-09-14T02:54:37.658Z,993.61
2017-09-14T02:55:37.622Z,993.67
2017-09-14T02:56:37.591Z,993.66
2017-09-14T02:57:37.559Z,993.68
2017-09-14T02:58:37.543Z,993.61
2017-09-14T02:59:37.534Z,993.61
2017-09-14T03:00:37.480Z,993.60
2017-09-14T03:01:37.458Z,993.62
2017-09-14T03:02:37.416Z,993.64
2017-09-14T03:03:37.364Z,993.63
2017-09-14T03:04:37.335Z,993.67
2017-09-14T03:05:37.279Z,993.72
2017-09-14T03:06:37.241Z,993.69
2017-09-14T03:07:37.213Z,993.67
2017-09-14T03:08:37.171Z,993.66
2017-09-14T03:09:37.147Z,993.65
2017-09-14T03:10:37.159Z,993.65
2017-09-14T03:11:37.072Z,993.57
2017-09-14T03:12:37.044Z,993.54
2017-09-14T03:13:36.993Z,993.53
2017-09-14T03:14:36.963Z,993.55
2017-09-14T03:15:36.925Z,993.51
2017-09-14T03:16:36.899Z,993.53
2017-09-14T03:17:36.851Z,993.59
2017-09-14T03:18:36.821Z,993.58
2017-09-14T03:19:36.780Z,993.54
2017-09-14T03:20:36.746Z,993.56
2017-09-14T03:21:36.720Z,993.53
2017-09-14T03:22:36.682Z,993.49
2017-09-14T03:23:36.648Z,993.50
2017-09-14T03:24:36.608Z,993.44
2017-09-14T03:25:36.572Z,993.45
2017-09-14T03:26:36.538Z,993.36
2017-09-14T03:27:36.501Z,993.39
2017-09-14T03:28:36.477Z,993.44
2017-09-14T03:29:36.434Z,993.43
2017-09-14T03:30:36.397Z,993.46
2017-09-14T03:31:36.367Z,993.44
2017-09-14T03:32:36.330Z,993.49
2017-09-14T03:33:36.290Z,993.43
2017-09-14T03:34:36.258Z,993.47
2017-09-14T03:35:36.220Z,993.48
2017-09-14T03:36:36.186Z,993.50
2017-09-14T03:37:36.156Z,993.55
2017-09-14T03:38:36.129Z,993.54
2017-09-14T03:39:36.081Z,993.47
2017-09-14T03:40:36.042Z,993.42
2017-09-14T03:41:36.013Z,993.38
2017-09-14T03:42:35.982Z,993.39
2017-09-14T03:43:35.940Z,993.35
2017-09-14T03:44:35.903Z,993.34
2017-09-14T03:45:35.873Z,993.34
2017-09-14T03:46:35.835Z,993.33
2017-09-14T03:47:35.800Z,993.31
2017-09-14T03:48:35.767Z,993.35
2017-09-14T03:49:35.727Z,993.33
2017-09-14T03:50:35.699Z,993.46
2017-09-14T03:51:35.660Z,993.48
2017-09-14T03:52:35.640Z,993.46
2017-09-14T03:53:35.597Z,993.49
2017-09-14T03:54:35.555Z,993.57
2017-09-14T03:55:35.516Z,993.60
2017-09-14T03:56:35.480Z,993.60
2017-09-14T03:57:35.446Z,993.60
2017-09-14T03:58:35.439Z,993.56
2017-09-14T03:59:35.379Z,993.54
2017-09-14T04:00:35.353Z,993.58
2017-09-14T04:01:35.321Z,993.66
2017-09-14T04:02:35.299Z,993.66
2017-09-14T04:03:35.263Z,993.63
2017-09-14T04:04:35.211Z,993.62
2017-09-14T04:05:35.172Z,993.57
2017-09-14T04:06:35.133Z,993.65
2017-09-14T04:07:35.111Z,993.74
2017-09-14T04:08:35.058Z,993.79
2017-09-14T04:09:35.039Z,993.78
2017-09-14T04:10:34.986Z,993.82
2017-09-14T04:11:34.984Z,993.79
2017-09-14T04:12:34.925Z,993.79
2017-09-14T04:13:34.893Z,993.71
2017-09-14T04:14:34.853Z,993.79
2017-09-14T04:15:34.813Z,993.86
2017-09-14T04:16:34.801Z,993.85
2017-09-14T04:17:34.749Z,993.90
2017-09-14T04:18:34.712Z,993.88
2017-09-14T04:19:34.688Z,993.90
2017-09-14T04:20:34.641Z,993.92
2017-09-14T04:21:34.615Z,993.87
2017-09-14T04:22:34.570Z,993.88
2017-09-14T04:23:34.559Z,993.82
2017-09-14T04:24:34.499Z,993.90
2017-09-14T04:25:34.465Z,993.94
2017-09-14T04:26:34.430Z,993.91
2017-09-14T04:27:34.401Z,993.92
2017-09-14T04:28:34.350Z,993.84
2017-09-14T04:29:34.328Z,993.74
2017-09-14T04:30:34.286Z,993.68
2017-09-14T04:31:34.259Z,993.67
2017-09-14T04:32:34.217Z,993.64
2017-09-14T04:33:34.191Z,993.69
2017-09-14T04:34:34.157Z,993.84
2017-09-14T04:35:34.112Z,993.86
2017-09-14T04:36:34.094Z,993.91
2017-09-14T04:37:34.053Z,993.99
2017-09-14T04:38:34.026Z,994.14
2017-09-14T04:39:34.004Z,994.18
2017-09-14T04:40:33.978Z,994.07
2017-09-14T04:41:33.897Z,994.00
2017-09-14T04:42:33.882Z,993.88
2017-09-14T04:43:33.827Z,993.70
2017-09-14T04:44:33.813Z,993.47
2017-09-14T04:45:33.776Z,993.18
2017-09-14T04:46:33.725Z,993.19
2017-09-14T04:47:33.693Z,993.28
2017-09-14T04:48:33.658Z,993.42
2017-09-14T04:49:33.621Z,993.54
2017-09-14T04:50:33.588Z,993.70
2017-09-14T04:51:33.549Z,993.68
2017-09-14T04:52:33.520Z,993.54
2017-09-14T04:53:33.480Z,993.49
2017-09-14T04:54:33.444Z,993.52
2017-09-14T04:55:33.410Z,993.54
2017-09-14T04:56:33.375Z,993.70
2017-09-14T04:57:33.341Z,993.69
2017-09-14T04:58:33.313Z,993.69
2017-09-14T04:59:33.272Z,993.61
2017-09-14T05:00:33.237Z,993.51
2017-09-14T05:01:33.201Z,993.31
2017-09-14T05:02:33.176Z,993.18
2017-09-14T05:03:33.132Z,993.13
2017-09-14T05:04:33.097Z,993.15
2017-09-14T05:05:33.062Z,993.28
2017-09-14T05:06:33.030Z,993.44
2017-09-14T05:07:32.994Z,993.46
2017-09-14T05:08:32.960Z,993.48
2017-09-14T05:09:32.925Z,993.58
2017-09-14T05:10:32.901Z,993.67
2017-09-14T05:11:32.855Z,993.67
2017-09-14T05:12:32.826Z,993.64
2017-09-14T05:13:32.788Z,993.66
2017-09-14T05:14:32.753Z,993.72
2017-09-14T05:15:32.724Z,993.87
2017-09-14T05:16:32.691Z,994.04
2017-09-14T05:17:32.666Z,994.15
2017-09-14T05:18:32.616Z,994.23
2017-09-14T05:19:32.577Z,994.27
2017-09-14T05:20:32.548Z,994.22
2017-09-14T05:21:32.510Z,994.02
2017-09-14T05:22:32.474Z,993.74
2017-09-14T05:23:32.441Z,993.58
2017-09-14T05:24:32.407Z,993.66
2017-09-14T05:25:32.372Z,993.69
2017-09-14T05:26:32.335Z,993.61
2017-09-14T05:27:32.302Z,993.70
2017-09-14T05:28:32.273Z,993.77
2017-09-14T05:29:32.235Z,993.72
2017-09-14T05:30:32.202Z,993.73
2017-09-14T05:31:32.163Z,993.66
2017-09-14T05:32:32.129Z,993.63
2017-09-14T05:33:32.106Z,993.68
2017-09-14T05:34:32.059Z,993.87
2017-09-14T05:35:32.028Z,993.97
2017-09-14T05:36:31.992Z,993.97
2017-09-14T05:37:31.957Z,993.94
2017-09-14T05:38:31.930Z,993.90
2017-09-14T05:39:31.887Z,993.71
2017-09-14T05:40:31.853Z,993.81
2017-09-14T05:41:31.821Z,993.89
2017-09-14T05:42:31.792Z,993.88
2017-09-14T05:43:31.749Z,993.99
2017-09-14T05:44:31.714Z,994.14
2017-09-14T05:45:31.678Z,994.12
2017-09-14T05:46:31.655Z,994.11
2017-09-14T05:47:31.624Z,994.05
2017-09-14T05:48:31.583Z,994.00
2017-09-14T05:49:31.544Z,994.00
2017-09-14T05:50:31.506Z,994.00
2017-09-14T05:51:31.483Z,993.91
2017-09-14T05:52:31.438Z,993.92
2017-09-14T05:53:31.405Z,993.93
2017-09-14T05:54:31.373Z,993.99
2017-09-14T05:55:31.357Z,994.04
2017-09-14T05:56:31.306Z,994.03
2017-09-14T05:57:31.270Z,994.02
2017-09-14T05:58:31.232Z,994.02
2017-09-14T05:59:31.206Z,993.99
2017-09-14T06:00:31.162Z,994.03
2017-09-14T06:01:31.131Z,994.00
2017-09-14T06:02:31.094Z,994.00
2017-09-14T06:03:31.058Z,994.00
2017-09-14T06:04:31.026Z,993.94
2017-09-14T06:05:30.991Z,993.90
2017-09-14T06:06:30.963Z,993.91
2017-09-14T06:07:30.923Z,993.99
2017-09-14T06:08:30.886Z,994.00
2017-09-14T06:09:30.860Z,994.05
2017-09-14T06:10:30.822Z,994.06
2017-09-14T06:11:30.799Z,994.08
2017-09-14T06:12:30.758Z,994.14
2017-09-14T06:13:30.721Z,994.23
2017-09-14T06:14:30.694Z,994.32
2017-09-14T06:15:30.652Z,994.31
2017-09-14T06:16:30.630Z,994.31
2017-09-14T06:17:30.582Z,994.28
2017-09-14T06:18:30.554Z,994.27
2017-09-14T06:19:30.530Z,994.30
2017-09-14T06:20:30.494Z,994.43
2017-09-14T06:21:30.446Z,994.56
2017-09-14T06:22:30.408Z,994.63
2017-09-14T06:23:30.396Z,994.51
2017-09-14T06:24:30.354Z,994.37
2017-09-14T06:25:30.318Z,994.30
2017-09-14T06:26:30.270Z,994.44
2017-09-14T06:27:30.249Z,994.50
2017-09-14T06:28:30.207Z,994.55
2017-09-14T06:29:30.177Z,994.41
2017-09-14T06:30:30.143Z,994.28
2017-09-14T06:31:30.110Z,994.30
2017-09-14T06:32:30.064Z,994.33
2017-09-14T06:33:30.042Z,994.25
2017-09-14T06:34:29.998Z,994.27
2017-09-14T06:35:29.990Z,994.33
2017-09-14T06:36:29.942Z,994.31
2017-09-14T06:37:29.892Z,994.49
2017-09-14T06:38:29.860Z,994.33
2017-09-14T06:39:29.847Z,994.27
2017-09-14T06:40:29.800Z,994.24
2017-09-14T06:41:29.760Z,994.17
2017-09-14T06:42:29.723Z,994.29
2017-09-14T06:43:29.693Z,994.34
2017-09-14T06:44:29.665Z,994.25
2017-09-14T06:45:29.637Z,994.28
2017-09-14T06:46:29.590Z,994.32
2017-09-14T06:47:29.552Z,994.37
2017-09-14T06:48:29.521Z,994.35
2017-09-14T06:49:29.499Z,994.30
2017-09-14T06:50:29.460Z,994.33
2017-09-14T06:51:29.471Z,994.32
2017-09-14T06:52:29.383Z,994.30
2017-09-14T06:53:29.362Z,994.27
2017-09-14T06:54:29.316Z,994.49
2017-09-14T06:55:29.289Z,994.51
2017-09-14T06:56:29.249Z,994.58
2017-09-14T06:57:29.226Z,994.53
2017-09-14T06:58:29.186Z,994.49
2017-09-14T06:59:29.187Z,994.50
2017-09-14T07:00:29.124Z,994.45
2017-09-14T07:01:29.124Z,994.42
2017-09-14T07:02:29.040Z,994.48
2017-09-14T07:03:29.152Z,994.44
2017-09-14T07:04:28.978Z,994.45
2017-09-14T07:05:28.941Z,994.49
2017-09-14T07:06:28.910Z,994.52
2017-09-14T07:07:28.871Z,994.41
2017-09-14T07:08:28.846Z,994.32
2017-09-14T07:09:28.805Z,994.25
2017-09-14T07:10:28.785Z,994.25
2017-09-14T07:11:28.774Z,994.25
2017-09-14T07:12:28.724Z,994.28
2017-09-14T07:13:28.693Z,994.23
2017-09-14T07:14:28.649Z,994.38
2017-09-14T07:15:28.610Z,994.50
2017-09-14T07:16:28.577Z,994.53
2017-09-14T07:17:28.548Z,994.55
2017-09-14T07:18:28.513Z,994.56
2017-09-14T07:19:28.478Z,994.63
2017-09-14T07:20:28.436Z,994.79
2017-09-14T07:21:28.410Z,994.78
2017-09-14T07:22:28.398Z,994.62
2017-09-14T07:23:29.188Z,994.49
2017-09-14T07:24:28.306Z,994.41
2017-09-14T07:25:28.272Z,994.35
2017-09-14T07:26:28.264Z,994.28
2017-09-14T07:27:28.204Z,994.16
2017-09-14T07:28:28.168Z,994.26
2017-09-14T07:29:28.145Z,994.24
2017-09-14T07:30:28.101Z,994.17
2017-09-14T07:31:28.068Z,994.19
2017-09-14T07:32:28.035Z,994.35
2017-09-14T07:33:28.005Z,994.50
2017-09-14T07:34:27.979Z,994.58
2017-09-14T07:35:27.936Z,994.72
2017-09-14T07:36:27.901Z,994.89
2017-09-14T07:37:27.875Z,994.96
2017-09-14T07:38:27.837Z,995.01
2017-09-14T07:39:27.804Z,995.20
2017-09-14T07:40:27.770Z,995.35
2017-09-14T07:41:27.734Z,995.25
2017-09-14T07:42:27.703Z,995.16
2017-09-14T07:43:27.669Z,995.24
2017-09-14T07:44:27.637Z,995.30
2017-09-14T07:45:27.604Z,995.31
2017-09-14T07:46:27.572Z,995.23
2017-09-14T07:47:27.542Z,995.10
2017-09-14T07:48:27.508Z,995.12
2017-09-14T07:49:27.477Z,995.11
2017-09-14T07:50:27.450Z,995.08
2017-09-14T07:51:27.407Z,994.99
2017-09-14T07:52:27.371Z,995.03
2017-09-14T07:53:27.340Z,995.04
2017-09-14T07:54:27.307Z,995.07
2017-09-14T07:55:27.281Z,995.10
2017-09-14T07:56:27.252Z,995.06
2017-09-14T07:57:27.212Z,995.07
2017-09-14T07:58:27.174Z,994.97
2017-09-14T07:59:27.143Z,994.93
2017-09-14T08:00:27.109Z,994.99
2017-09-14T08:01:27.077Z,995.08
2017-09-14T08:02:27.043Z,995.13
2017-09-14T08:03:27.012Z,995.14
2017-09-14T08:04:26.980Z,995.17
2017-09-14T08:05:26.946Z,995.20
2017-09-14T08:06:26.917Z,995.18
2017-09-14T08:07:26.879Z,995.22
2017-09-14T08:08:26.851Z,995.22
2017-09-14T08:09:26.818Z,995.23
2017-09-14T08:10:26.784Z,995.23
2017-09-14T08:11:26.750Z,995.23
2017-09-14T08:12:26.718Z,995.27
2017-09-14T08:13:26.684Z,995.21
2017-09-14T08:14:26.655Z,995.17
2017-09-14T08:15:26.619Z,995.13
2017-09-14T08:16:26.590Z,995.19
2017-09-14T08:17:26.572Z,995.22
2017-09-14T08:18:26.526Z,995.24
2017-09-14T08:19:26.491Z,995.32
2017-09-14T08:20:26.459Z,995.38
2017-09-14T08:21:26.425Z,995.42
2017-09-14T08:22:26.394Z,995.42
2017-09-14T08:23:26.362Z,995.43
2017-09-14T08:24:26.329Z,995.49
2017-09-14T08:25:26.296Z,995.42
2017-09-14T08:26:26.278Z,995.41
2017-09-14T08:27:26.232Z,995.42
2017-09-14T08:28:26.197Z,995.50
2017-09-14T08:29:26.167Z,995.46
2017-09-14T08:30:26.139Z,995.45
2017-09-14T08:31:26.100Z,995.47
2017-09-14T08:32:26.066Z,995.39
2017-09-14T08:33:26.044Z,995.46
2017-09-14T08:34:26.005Z,995.41
2017-09-14T08:35:25.974Z,995.51
2017-09-14T08:36:25.942Z,995.59
2017-09-14T08:37:25.914Z,995.57
2017-09-14T08:38:25.882Z,995.50
2017-09-14T08:39:25.853Z,995.48
2017-09-14T08:40:25.820Z,995.51
2017-09-14T08:41:25.793Z,995.49
2017-09-14T08:42:25.745Z,995.44
2017-09-14T08:43:25.713Z,995.32
2017-09-14T08:44:25.683Z,995.36
2017-09-14T08:45:25.650Z,995.28
2017-09-14T08:46:25.622Z,995.32
2017-09-14T08:47:25.587Z,995.34
2017-09-14T08:48:25.555Z,995.41
2017-09-14T08:49:25.522Z,995.41
2017-09-14T08:50:25.518Z,995.44
2017-09-14T08:51:25.466Z,995.35
2017-09-14T08:52:25.432Z,995.36
2017-09-14T08:53:25.395Z,995.33
2017-09-14T08:54:25.371Z,995.25
2017-09-14T08:55:25.334Z,995.16
2017-09-14T08:56:25.303Z,995.16
2017-09-14T08:57:25.295Z,995.17
2017-09-14T08:58:25.231Z,995.23
2017-09-14T08:59:25.208Z,995.23
2017-09-14T09:00:25.180Z,995.36
2017-09-14T09:01:25.144Z,995.44
2017-09-14T09:02:25.131Z,995.49
2017-09-14T09:03:25.077Z,995.64
2017-09-14T09:04:25.048Z,995.63
2017-09-14T09:05:25.012Z,995.64
2017-09-14T09:06:24.984Z,995.64
2017-09-14T09:07:24.994Z,995.58
2017-09-14T09:08:24.921Z,995.56
2017-09-14T09:09:24.914Z,995.54
2017-09-14T09:10:24.852Z,995.53
2017-09-14T09:11:24.820Z,995.52
2017-09-14T09:12:24.806Z,995.50
2017-09-14T09:13:24.753Z,995.48
2017-09-14T09:14:24.744Z,995.47
2017-09-14T09:15:24.700Z,995.49
2017-09-14T09:16:24.668Z,995.45
2017-09-14T09:17:24.631Z,995.51
2017-09-14T09:18:24.621Z,995.56
2017-09-14T09:19:24.582Z,995.54
2017-09-14T09:20:24.548Z,995.55
2017-09-14T09:21:24.522Z,995.52
2017-09-14T09:22:24.480Z,995.53
2017-09-14T09:23:24.447Z,995.48
2017-09-14T09:24:24.436Z,995.50
2017-09-14T09:25:24.396Z,995.54
2017-09-14T09:26:24.350Z,995.45
2017-09-14T09:27:24.312Z,995.48
2017-09-14T09:28:24.285Z,995.53
2017-09-14T09:29:24.271Z,995.50
2017-09-14T09:30:24.224Z,995.44
2017-09-14T09:31:24.184Z,995.38
2017-09-14T09:32:24.148Z,995.43
2017-09-14T09:33:24.121Z,995.52
2017-09-14T09:34:24.092Z,995.61
2017-09-14T09:35:24.052Z,995.67
2017-09-14T09:36:24.033Z,995.78
2017-09-14T09:37:24.027Z,995.77
2017-09-14T09:38:23.969Z,995.82
2017-09-14T09:39:23.927Z,995.88
2017-09-14T09:40:23.905Z,995.88
2017-09-14T09:41:23.887Z,995.89
2017-09-14T09:42:23.852Z,995.83
2017-09-14T09:43:23.813Z,995.78
2017-09-14T09:44:23.777Z,995.79
2017-09-14T09:45:23.756Z,995.85
2017-09-14T09:46:23.729Z,995.84
2017-09-14T09:47:23.686Z,995.78
2017-09-14T09:48:23.639Z,995.76
2017-09-14T09:49:23.613Z,995.77
2017-09-14T09:50:23.600Z,995.84
2017-09-14T09:51:23.552Z,995.87
2017-09-14T09:52:23.518Z,996.01
2017-09-14T09:53:23.533Z,996.03
2017-09-14T09:54:23.455Z,996.01
2017-09-14T09:55:23.429Z,995.94
2017-09-14T09:56:23.388Z,995.87
2017-09-14T09:57:23.380Z,995.83
2017-09-14T09:58:23.336Z,995.82
2017-09-14T09:59:23.302Z,995.77
2017-09-14T10:00:23.274Z,995.87
2017-09-14T10:01:26.047Z,996.02
2017-09-14T10:02:23.197Z,996.02
2017-09-14T10:03:23.164Z,996.00
2017-09-14T10:04:23.133Z,995.94
2017-09-14T10:05:23.101Z,995.82
2017-09-14T10:06:23.080Z,995.70
2017-09-14T10:07:23.041Z,995.79
2017-09-14T10:08:23.008Z,995.83
2017-09-14T10:09:22.975Z,995.91
2017-09-14T10:10:22.943Z,995.90
2017-09-14T10:11:22.911Z,995.85
2017-09-14T10:12:22.877Z,995.78
2017-09-14T10:13:22.848Z,995.79
2017-09-14T10:14:22.817Z,995.92
2017-09-14T10:15:22.779Z,995.93
2017-09-14T10:16:22.759Z,995.85
2017-09-14T10:17:22.729Z,995.76
2017-09-14T10:18:22.688Z,995.86
2017-09-14T10:19:22.673Z,995.91
2017-09-14T10:20:22.623Z,995.96
2017-09-14T10:21:22.599Z,995.93
2017-09-14T10:22:22.564Z,995.85
2017-09-14T10:23:22.529Z,995.82
2017-09-14T10:24:22.499Z,995.68
2017-09-14T10:25:22.475Z,995.65
2017-09-14T10:26:22.433Z,995.57
2017-09-14T10:27:22.399Z,995.55
2017-09-14T10:28:22.371Z,995.52
2017-09-14T10:29:22.336Z,995.54
2017-09-14T10:30:22.308Z,995.75
2017-09-14T10:31:22.272Z,995.84
2017-09-14T10:32:22.242Z,995.90
2017-09-14T10:33:22.209Z,995.95
2017-09-14T10:34:22.179Z,995.89
2017-09-14T10:35:22.148Z,995.90
2017-09-14T10:36:22.114Z,996.05
2017-09-14T10:37:22.084Z,996.11
2017-09-14T10:38:22.054Z,996.15
2017-09-14T10:39:22.020Z,996.14
2017-09-14T10:40:21.999Z,996.10
2017-09-14T10:41:21.959Z,995.97
2017-09-14T10:42:21.930Z,995.86
2017-09-14T10:43:21.892Z,995.79
2017-09-14T10:44:21.862Z,995.77
2017-09-14T10:45:21.829Z,995.78
2017-09-14T10:46:21.803Z,995.72
2017-09-14T10:47:21.772Z,995.64
2017-09-14T10:48:21.736Z,995.51
2017-09-14T10:49:21.704Z,995.55
2017-09-14T10:50:21.674Z,995.52
2017-09-14T10:51:21.644Z,995.56
2017-09-14T10:52:21.615Z,995.63
2017-09-14T10:53:21.584Z,995.64
2017-09-14T10:54:21.551Z,995.59
2017-09-14T10:55:21.527Z,995.52
2017-09-14T10:56:21.499Z,995.53
2017-09-14T10:57:21.464Z,995.59
2017-09-14T10:58:21.425Z,995.73
2017-09-14T10:59:21.396Z,995.85
2017-09-14T11:00:21.365Z,995.97
2017-09-14T11:01:21.332Z,995.90
2017-09-14T11:02:21.304Z,995.91
2017-09-14T11:03:21.273Z,995.89
2017-09-14T11:04:21.247Z,996.02
2017-09-14T11:05:21.214Z,996.15
2017-09-14T11:06:21.187Z,996.19
2017-09-14T11:07:21.149Z,996.18
2017-09-14T11:08:21.134Z,996.27
2017-09-14T11:09:21.089Z,996.27
2017-09-14T11:10:21.064Z,996.19
2017-09-14T11:11:21.024Z,996.00
2017-09-14T11:12:20.995Z,995.94
2017-09-14T11:13:20.962Z,995.73
2017-09-14T11:14:20.935Z,995.73
2017-09-14T11:15:20.911Z,995.72
2017-09-14T11:16:20.876Z,995.70
2017-09-14T11:17:20.846Z,995.70
2017-09-14T11:18:20.824Z,995.82
2017-09-14T11:19:20.781Z,995.78
2017-09-14T11:20:20.752Z,995.91
2017-09-14T11:21:20.728Z,995.96
2017-09-14T11:22:20.689Z,996.00
2017-09-14T11:23:20.663Z,996.06
2017-09-14T11:24:20.630Z,996.14
2017-09-14T11:25:20.602Z,996.05
2017-09-14T11:26:20.573Z,996.13
2017-09-14T11:27:20.534Z,996.02
2017-09-14T11:28:20.504Z,995.97
2017-09-14T11:29:20.473Z,996.03
2017-09-14T11:30:20.467Z,996.02
2017-09-14T11:31:20.412Z,996.07
2017-09-14T11:32:20.382Z,995.94
2017-09-14T11:33:20.354Z,996.06
2017-09-14T11:34:20.324Z,996.08
2017-09-14T11:35:20.288Z,996.13
2017-09-14T11:36:20.288Z,996.37
2017-09-14T11:37:20.258Z,996.33
2017-09-14T11:38:20.202Z,996.21
2017-09-14T11:39:20.166Z,996.21
2017-09-14T11:40:20.141Z,996.08
2017-09-14T11:41:20.115Z,995.99
2017-09-14T11:42:20.068Z,996.09
2017-09-14T11:43:20.033Z,996.04
2017-09-14T11:44:20.008Z,995.81
2017-09-14T11:45:19.979Z,995.81
2017-09-14T11:46:19.937Z,995.75
2017-09-14T11:47:19.903Z,995.84
2017-09-14T11:48:19.892Z,995.91
2017-09-14T11:49:19.841Z,995.99
2017-09-14T11:50:19.810Z,996.03
2017-09-14T11:51:19.782Z,996.05
2017-09-14T11:52:19.756Z,995.98
2017-09-14T11:53:19.720Z,996.01
2017-09-14T11:54:19.680Z,996.09
2017-09-14T11:55:19.676Z,996.14
2017-09-14T11:56:19.606Z,996.12
2017-09-14T11:57:19.579Z,995.99
2017-09-14T11:58:19.546Z,995.97
2017-09-14T11:59:19.515Z,995.85
2017-09-14T12:00:19.476Z,995.81
2017-09-14T12:01:19.442Z,995.81
2017-09-14T12:02:19.428Z,995.76
2017-09-14T12:03:19.381Z,995.81
2017-09-14T12:04:19.379Z,995.92
2017-09-14T12:05:19.312Z,996.09
2017-09-14T12:06:19.287Z,996.16
2017-09-14T12:07:19.242Z,996.19
2017-09-14T12:08:19.215Z,996.22
2017-09-14T12:09:19.180Z,996.21
2017-09-14T12:10:19.146Z,996.17
2017-09-14T12:11:19.114Z,996.21
2017-09-14T12:12:19.082Z,996.21
2017-09-14T12:13:19.053Z,996.18
2017-09-14T12:14:19.021Z,996.11
2017-09-14T12:15:19.004Z,996.04
2017-09-14T12:16:18.944Z,996.03
2017-09-14T12:17:18.926Z,995.98
2017-09-14T12:18:18.885Z,995.95
2017-09-14T12:19:18.856Z,995.86
2017-09-14T12:20:18.859Z,995.69
2017-09-14T12:21:18.786Z,995.60
2017-09-14T12:22:18.814Z,995.56
2017-09-14T12:23:18.732Z,995.56
2017-09-14T12:24:18.689Z,995.49
2017-09-14T12:25:18.662Z,995.57
2017-09-14T12:26:18.655Z,995.63
2017-09-14T12:27:18.606Z,995.75
2017-09-14T12:28:18.555Z,995.78